Time;durP1;ratioP1;P1;durP2;ratioP2;P2;SDS_P1;SDS_P2;PMS_P1;PMS_P2;Temp;Humidity;BMP_temperature;BMP_pressure;BME280_temperature;BME280_humidity;BME280_pressure;Samples;Min_cycle;Max_cycle;Signal;HPM_P1;HPM_P2
2021/12/01 00:01:57;;;;;;;1.30;0.87;;;;;;;-0.43;100.00;95281.41;5033351;28;20434;-61
2021/12/01 00:04:24;;;;;;;0.83;0.40;;;;;;;-0.47;100.00;95287.66;5032855;28;20521;-59
2021/12/01 00:06:51;;;;;;;0.93;0.87;;;;;;;-0.50;100.00;95281.88;5033232;28;20101;-59
2021/12/01 00:09:18;;;;;;;1.73;0.80;;;;;;;-0.54;100.00;95280.41;5015293;28;20049;-60
2021/12/01 00:11:45;;;;;;;2.40;1.23;;;;;;;-0.55;100.00;95297.63;5032995;28;20133;-60
2021/12/01 00:14:13;;;;;;;1.17;0.80;;;;;;;-0.49;100.00;95304.16;5032978;28;20284;-60
2021/12/01 00:16:41;;;;;;;0.80;0.70;;;;;;;-0.54;100.00;95307.00;5032848;28;20076;-61
2021/12/01 00:19:08;;;;;;;3.40;0.90;;;;;;;-0.46;100.00;95294.47;5033033;28;20044;-61
2021/12/01 00:21:35;;;;;;;3.53;0.90;;;;;;;-0.48;100.00;95301.50;5032793;28;20049;-60
2021/12/01 00:24:03;;;;;;;1.03;0.83;;;;;;;-0.50;100.00;95303.31;5032112;28;20049;-61
2021/12/01 00:26:30;;;;;;;1.87;0.90;;;;;;;-0.55;100.00;95294.22;5032931;28;20085;-60
2021/12/01 00:28:57;;;;;;;0.80;0.80;;;;;;;-0.54;100.00;95301.84;5032593;28;20048;-60
2021/12/01 00:31:24;;;;;;;3.30;1.37;;;;;;;-0.53;100.00;95307.84;5032707;28;20085;-61
2021/12/01 00:33:52;;;;;;;5.40;2.47;;;;;;;-0.50;100.00;95323.97;5032388;28;20058;-61
2021/12/01 00:36:19;;;;;;;1.50;1.07;;;;;;;-0.45;100.00;95326.25;5031308;28;20049;-60
2021/12/01 00:38:47;;;;;;;1.03;0.87;;;;;;;-0.55;100.00;95313.09;5013907;28;20056;-60
2021/12/01 00:41:15;;;;;;;1.63;1.27;;;;;;;-0.52;100.00;95305.19;5033060;28;20076;-60
2021/12/01 00:43:42;;;;;;;0.90;0.90;;;;;;;-0.53;100.00;95324.16;5033400;28;20140;-60
2021/12/01 00:46:13;;;;;;;0.60;0.60;;;;;;;-0.59;100.00;95319.38;5032598;28;20400;-60
2021/12/01 00:49:02;;;;;;;1.03;0.93;;;;;;;-0.51;100.00;95326.63;5032607;28;20073;-61
2021/12/01 00:51:29;;;;;;;54.40;3.67;;;;;;;-0.55;100.00;95325.16;5032094;28;20541;-60
2021/12/01 00:53:56;;;;;;;1.03;0.80;;;;;;;-0.48;100.00;95305.81;5032491;28;20099;-60
2021/12/01 00:56:23;;;;;;;1.67;1.33;;;;;;;-0.57;100.00;95316.72;5033541;28;20049;-60
2021/12/01 00:58:51;;;;;;;2.10;1.17;;;;;;;-0.53;100.00;95329.31;5032639;28;20081;-60
2021/12/01 01:01:18;;;;;;;1.50;1.10;;;;;;;-0.45;100.00;95324.53;5031467;28;20507;-60
2021/12/01 01:03:46;;;;;;;2.50;1.50;;;;;;;-0.43;100.00;95327.00;5032031;28;20124;-61
2021/12/01 01:06:14;;;;;;;1.27;1.10;;;;;;;-0.51;100.00;95337.78;5031877;28;20244;-61
2021/12/01 01:08:42;;;;;;;1.37;0.83;;;;;;;-0.41;100.00;95328.56;5032094;28;20411;-61
2021/12/01 01:16:22;;;;;;;2.80;1.57;;;;;;;-0.48;100.00;95331.59;5031937;28;20053;-63
2021/12/01 01:16:43;;;;;;;3.80;1.20;;;;;;;-0.42;100.00;95329.50;5016420;28;20537;-62
2021/12/01 01:19:12;;;;;;;1.33;0.90;;;;;;;-0.32;100.00;95328.00;5031614;28;20096;-62
2021/12/01 01:21:44;;;;;;;1.83;0.90;;;;;;;-0.32;100.00;95320.25;5031720;28;20128;-62
2021/12/01 01:24:11;;;;;;;1.95;1.38;;;;;;;-0.41;100.00;95338.88;5031712;28;20105;-61
2021/12/01 01:26:39;;;;;;;2.10;1.10;;;;;;;-0.38;100.00;95341.28;5031808;28;20497;-61
2021/12/01 01:29:07;;;;;;;1.40;1.20;;;;;;;-0.27;100.00;95320.81;5031687;28;20041;-61
2021/12/01 01:31:36;;;;;;;1.70;0.97;;;;;;;-0.32;100.00;95342.66;5031480;28;20034;-61
2021/12/01 01:34:04;;;;;;;1.90;0.90;;;;;;;-0.40;100.00;95331.97;5031839;28;20046;-62
2021/12/01 01:36:31;;;;;;;2.17;1.17;;;;;;;-0.35;100.00;95355.75;5015276;28;20477;-61
2021/12/01 01:38:59;;;;;;;1.77;1.40;;;;;;;-0.36;100.00;95352.31;5031728;28;20057;-61
2021/12/01 01:41:26;;;;;;;0.97;0.80;;;;;;;-0.25;100.00;95337.00;5031751;28;20558;-61
2021/12/01 01:43:54;;;;;;;1.07;1.00;;;;;;;-0.32;100.00;95352.97;5033088;28;20057;-61
2021/12/01 01:46:21;;;;;;;2.67;1.00;;;;;;;-0.25;100.00;95352.50;5033259;28;20052;-61
2021/12/01 01:48:52;;;;;;;1.97;1.40;;;;;;;-0.31;100.00;95359.78;5032735;28;20049;-61
2021/12/01 01:51:23;;;;;;;3.33;1.70;;;;;;;-0.20;100.00;95350.47;5031282;28;20096;-61
2021/12/01 01:53:53;;;;;;;3.77;1.77;;;;;;;-0.22;100.00;95365.19;5031053;28;20057;-61
2021/12/01 01:56:22;;;;;;;2.80;2.37;;;;;;;-0.26;100.00;95371.47;5031221;28;20053;-61
2021/12/01 01:58:50;;;;;;;1.67;1.13;;;;;;;-0.22;100.00;95365.19;5031298;28;20060;-60
2021/12/01 02:01:33;;;;;;;1.57;1.10;;;;;;;-0.09;100.00;95363.50;5030977;28;20432;-60
2021/12/01 02:04:00;;;;;;;1.20;1.13;;;;;;;-0.02;100.00;95369.13;5030807;28;20111;-60
2021/12/01 02:06:27;;;;;;;1.33;1.10;;;;;;;-0.07;100.00;95361.66;5032833;28;20108;-59
2021/12/01 02:08:58;;;;;;;1.20;0.90;;;;;;;-0.22;100.00;95377.25;5032687;28;20076;-60
2021/12/01 02:11:29;;;;;;;1.40;1.30;;;;;;;-0.09;100.00;95362.69;5031598;28;20406;-60
2021/12/01 02:13:56;;;;;;;2.53;1.37;;;;;;;-0.19;100.00;95371.91;5030064;28;20049;-60
2021/12/01 02:16:23;;;;;;;1.10;1.00;;;;;;;0.05;100.00;95384.13;5030562;28;20064;-59
2021/12/01 02:18:51;;;;;;;3.33;1.20;;;;;;;-0.02;100.00;95377.69;5031195;28;20136;-60
2021/12/01 02:21:26;;;;;;;1.50;1.03;;;;;;;0.01;100.00;95376.69;5032375;28;20045;-61
2021/12/01 02:23:56;;;;;;;1.53;1.20;;;;;;;0.00;100.00;95386.19;5032546;28;20124;-60
2021/12/01 02:26:24;;;;;;;1.37;1.10;;;;;;;0.01;100.00;95381.84;5032494;28;20050;-60
2021/12/01 02:28:53;;;;;;;1.17;0.80;;;;;;;-0.24;100.00;95390.25;5032329;28;20128;-60
2021/12/01 02:31:21;;;;;;;2.07;1.20;;;;;;;-0.12;100.00;95397.28;5031414;28;20403;-61
2021/12/01 02:33:49;;;;;;;1.33;1.20;;;;;;;-0.20;100.00;95404.66;5030604;28;20227;-61
2021/12/01 02:36:16;;;;;;;2.00;1.40;;;;;;;-0.19;100.00;95400.31;5031291;28;20057;-60
2021/12/01 02:38:47;;;;;;;1.60;1.07;;;;;;;-0.23;100.00;95406.56;5031825;28;20087;-61
2021/12/01 02:41:15;;;;;;;1.83;1.50;;;;;;;-0.19;100.00;95410.63;5030737;28;20145;-60
2021/12/01 02:43:44;;;;;;;1.20;1.10;;;;;;;-0.11;100.00;95404.09;5030414;28;20041;-60
2021/12/01 02:46:11;;;;;;;2.47;1.13;;;;;;;-0.23;100.00;95411.75;5032045;28;20048;-61
2021/12/01 02:48:42;;;;;;;2.03;1.20;;;;;;;-0.18;100.00;95412.28;5031249;28;20037;-61
2021/12/01 02:51:09;;;;;;;2.63;1.47;;;;;;;-0.16;100.00;95416.44;5030412;28;20052;-61
2021/12/01 02:53:37;;;;;;;5.10;1.23;;;;;;;-0.19;100.00;95418.38;5030378;28;20045;-61
2021/12/01 22:09:33;;;;;;;23.73;9.77;;;;;;;-0.53;100.00;95950.88;5029958;28;20103;-62
2021/12/01 22:12:01;;;;;;;15.57;8.70;;;;;;;-0.56;100.00;95952.75;5011486;28;20052;-61
2021/12/01 22:14:31;;;;;;;14.03;7.67;;;;;;;-0.55;100.00;95942.38;5030363;28;20047;-61
2021/12/01 22:16:58;;;;;;;18.03;8.37;;;;;;;-0.52;100.00;95936.22;5030453;28;20052;-60
2021/12/01 22:19:26;;;;;;;17.37;9.03;;;;;;;-0.43;100.00;95939.16;5030671;28;20041;-61
2021/12/01 22:21:58;;;;;;;14.27;7.60;;;;;;;-0.51;100.00;95933.56;5030691;28;20049;-62
2021/12/01 22:24:31;;;;;;;15.47;7.07;;;;;;;-0.56;100.00;95935.53;5030628;28;20045;-62
2021/12/01 22:26:59;;;;;;;;;;;;;;;-0.46;100.00;95923.00;5031000;28;20045;-62
2021/12/01 22:29:31;;;;;;;16.83;7.87;;;;;;;-0.40;100.00;95917.50;5029132;28;19928;-64
2021/12/01 22:32:00;;;;;;;18.43;9.27;;;;;;;-0.46;100.00;95918.66;5029524;28;20044;-65
2021/12/01 22:34:28;;;;;;;17.37;7.90;;;;;;;-0.47;100.00;95911.84;5029867;28;20041;-67
2021/12/01 22:36:56;;;;;;;16.50;7.13;;;;;;;-0.48;100.00;95917.94;5030113;28;20069;-63
2021/12/01 22:39:25;;;;;;;14.60;7.10;;;;;;;-0.47;100.00;95914.44;5030221;28;20539;-63
2021/12/01 22:41:53;;;;;;;17.20;8.67;;;;;;;-0.32;100.00;95908.47;5030186;28;20056;-64
2021/12/01 22:44:21;;;;;;;18.40;7.20;;;;;;;-0.40;100.00;95907.19;5030165;28;20077;-63
2021/12/01 22:46:49;;;;;;;18.30;8.17;;;;;;;-0.39;100.00;95899.38;5030139;28;20394;-65
2021/12/01 22:49:16;;;;;;;15.67;8.00;;;;;;;-0.29;100.00;95903.16;5031351;28;20458;-63
2021/12/01 22:51:43;;;;;;;17.37;8.87;;;;;;;-0.27;100.00;95901.34;5013181;28;20045;-62
2021/12/01 22:54:10;;;;;;;14.20;7.63;;;;;;;-0.38;100.00;95889.91;5029876;28;20041;-63
2021/12/01 22:56:42;;;;;;;16.03;7.50;;;;;;;-0.40;100.00;95894.28;5011524;28;20117;-63
2021/12/01 22:59:12;;;;;;;20.57;8.67;;;;;;;-0.49;100.00;95887.06;5029980;28;20053;-63
2021/12/01 23:01:43;;;;;;;16.60;8.77;;;;;;;-0.36;100.00;95888.91;5029930;28;20029;-63
2021/12/01 23:04:13;;;;;;;13.47;8.23;;;;;;;-0.37;100.00;95878.66;5029591;28;20049;-62
2021/12/01 23:06:41;;;;;;;14.67;7.20;;;;;;;-0.33;100.00;95881.00;5029695;28;20045;-64
2021/12/01 23:09:09;;;;;;;15.93;8.43;;;;;;;-0.30;100.00;95874.84;5029357;28;20053;-62
2021/12/01 23:11:36;;;;;;;14.57;7.10;;;;;;;-0.23;100.00;95858.97;5029668;28;20057;-63
2021/12/01 23:14:04;;;;;;;15.63;8.23;;;;;;;-0.30;100.00;95855.06;5029661;28;20112;-62
2021/12/01 23:16:34;;;;;;;13.97;7.87;;;;;;;-0.34;100.00;95845.81;5029458;28;20079;-61
2021/12/01 23:19:04;;;;;;;25.30;10.93;;;;;;;-0.26;100.00;95843.66;5029662;28;20076;-62
2021/12/01 23:21:32;;;;;;;15.37;8.57;;;;;;;-0.31;100.00;95848.22;5030010;28;20054;-62
2021/12/01 23:29:29;;;;;;;15.67;7.87;;;;;;;-0.13;100.00;95836.88;5028234;28;20046;-62
2021/12/01 23:31:56;;;;;;;16.90;9.10;;;;;;;-0.18;100.00;95827.72;5029317;28;20073;-62
2021/12/01 23:34:24;;;;;;;14.67;7.77;;;;;;;-0.10;100.00;95833.34;5028658;28;20430;-61
2021/12/01 23:36:58;;;;;;;12.10;6.90;;;;;;;-0.16;100.00;95824.19;5028905;28;20426;-61
2021/12/01 23:39:25;;;;;;;17.23;8.70;;;;;;;-0.22;100.00;95818.50;5028861;28;20054;-61
2021/12/01 23:41:52;;;;;;;15.87;7.83;;;;;;;-0.16;100.00;95813.84;5028741;28;20049;-62
2021/12/01 23:44:19;;;;;;;18.47;8.83;;;;;;;-0.32;100.00;95812.19;5028879;28;20103;-61
2021/12/01 23:47:18;;;;;;;16.20;8.10;;;;;;;-0.26;100.00;95812.69;5029546;28;20057;-62
2021/12/01 23:52:31;;;;;;;13.37;7.37;;;;;;;-0.18;100.00;95813.09;5029713;28;20045;-62
2021/12/01 23:54:58;;;;;;;15.10;7.63;;;;;;;-0.26;100.00;95815.25;5029982;28;20041;-63
2021/12/01 23:57:26;;;;;;;16.10;8.07;;;;;;;-0.33;100.00;95806.19;5029541;28;20046;-63
2021/12/01 23:59:55;;;;;;;17.00;7.70;;;;;;;-0.25;100.00;95806.59;5030160;28;20054;-62
